<?xml version="1.0" encoding="UTF-8" standalone="no" ?>
<gpx xmlns="http://www.topografix.com/GPX/1/1" xmlns:xsi="http://www.w3.org/2001/XMLSchema-instance" xsi:schemaLocation="http://www.topografix.com/GPX/1/1 http://www.topografix.com/GPX/1/1/gpx.xsd" version="1.1" creator="VisuGPX - https://www.visugpx.com">
  <metadata>
    <name>Boucle du bocage au départ de Cossé d'Anjou</name>
  </metadata>
  <wpt lat="47.16337" lon="-0.67957">
    <ele>144</ele>
    <name><![CDATA[Église de Cossé d'Anjou ]]></name>
  </wpt>
  <wpt lat="47.16382" lon="-0.68893">
    <ele>152</ele>
    <name><![CDATA[Intersection]]></name>
  </wpt>
  <wpt lat="47.17197" lon="-0.68696">
    <ele>125</ele>
    <name><![CDATA[Chemin de la Prée ]]></name>
  </wpt>
  <wpt lat="47.17076" lon="-0.69625">
    <ele>132</ele>
    <name><![CDATA[Croisement en T]]></name>
  </wpt>
  <wpt lat="47.18077" lon="-0.69123">
    <ele>125</ele>
    <name><![CDATA[La Bretonnerie]]></name>
  </wpt>
  <wpt lat="47.18721" lon="-0.68336">
    <ele>111</ele>
    <name><![CDATA[Intersection ]]></name>
  </wpt>
  <wpt lat="47.18363" lon="-0.67095">
    <ele>106</ele>
    <name><![CDATA[La Grande Louettière]]></name>
  </wpt>
  <wpt lat="47.18362" lon="-0.67082">
    <ele>107</ele>
    <name><![CDATA[La Grande Louettière ]]></name>
  </wpt>
  <wpt lat="47.18169" lon="-0.67057">
    <ele>113</ele>
    <name><![CDATA[Intersection]]></name>
  </wpt>
  <wpt lat="47.17603" lon="-0.66876">
    <ele>126</ele>
    <name><![CDATA[Route D]]></name>
  </wpt>
  <wpt lat="47.17475" lon="-0.67797">
    <ele>120</ele>
    <name><![CDATA[Croix]]></name>
  </wpt>
  <wpt lat="47.16337" lon="-0.67957">
    <ele>144</ele>
    <name><![CDATA[Église de Cossé d'Anjou]]></name>
  </wpt>
  <trk>
    <name><![CDATA[Boucle du bocage au départ de Cossé d'Anjou]]></name>
    <trkseg>
      <trkpt lat="47.16337" lon="-0.67957">
        <ele>144</ele>
        <time>2020-09-23T18:34:35+02:00</time>
      </trkpt>
      <trkpt lat="47.16342" lon="-0.6794">
        <ele>143</ele>
        <time>2020-09-23T18:34:40+02:00</time>
      </trkpt>
      <trkpt lat="47.16374" lon="-0.67966">
        <ele>140</ele>
        <time>2020-09-23T18:34:45+02:00</time>
      </trkpt>
      <trkpt lat="47.16422" lon="-0.68028">
        <ele>137</ele>
        <time>2020-09-23T18:34:50+02:00</time>
      </trkpt>
      <trkpt lat="47.1644" lon="-0.6808">
        <ele>136</ele>
        <time>2020-09-23T18:34:55+02:00</time>
      </trkpt>
      <trkpt lat="47.1647" lon="-0.68135">
        <ele>138</ele>
        <time>2020-09-23T18:35:00+02:00</time>
      </trkpt>
      <trkpt lat="47.16534" lon="-0.68242">
        <ele>138</ele>
        <time>2020-09-23T18:35:05+02:00</time>
      </trkpt>
      <trkpt lat="47.16558" lon="-0.68286">
        <ele>137</ele>
        <time>2020-09-23T18:35:10+02:00</time>
      </trkpt>
      <trkpt lat="47.16562" lon="-0.68308">
        <ele>137</ele>
        <time>2020-09-23T18:35:15+02:00</time>
      </trkpt>
      <trkpt lat="47.16564" lon="-0.68331">
        <ele>137</ele>
        <time>2020-09-23T18:35:20+02:00</time>
      </trkpt>
      <trkpt lat="47.16573" lon="-0.68378">
        <ele>138</ele>
        <time>2020-09-23T18:35:25+02:00</time>
      </trkpt>
      <trkpt lat="47.16578" lon="-0.68405">
        <ele>139</ele>
        <time>2020-09-23T18:35:30+02:00</time>
      </trkpt>
      <trkpt lat="47.16576" lon="-0.68423">
        <ele>139</ele>
        <time>2020-09-23T18:35:35+02:00</time>
      </trkpt>
      <trkpt lat="47.16563" lon="-0.68446">
        <ele>140</ele>
        <time>2020-09-23T18:35:40+02:00</time>
      </trkpt>
      <trkpt lat="47.16548" lon="-0.68472">
        <ele>141</ele>
        <time>2020-09-23T18:35:45+02:00</time>
      </trkpt>
      <trkpt lat="47.1653" lon="-0.68506">
        <ele>141</ele>
        <time>2020-09-23T18:35:50+02:00</time>
      </trkpt>
      <trkpt lat="47.16499" lon="-0.68585">
        <ele>144</ele>
        <time>2020-09-23T18:35:55+02:00</time>
      </trkpt>
      <trkpt lat="47.16494" lon="-0.686">
        <ele>145</ele>
        <time>2020-09-23T18:36:00+02:00</time>
      </trkpt>
      <trkpt lat="47.16488" lon="-0.68636">
        <ele>145</ele>
        <time>2020-09-23T18:36:05+02:00</time>
      </trkpt>
      <trkpt lat="47.16489" lon="-0.68654">
        <ele>146</ele>
        <time>2020-09-23T18:36:10+02:00</time>
      </trkpt>
      <trkpt lat="47.16498" lon="-0.68676">
        <ele>145</ele>
        <time>2020-09-23T18:36:15+02:00</time>
      </trkpt>
      <trkpt lat="47.16506" lon="-0.687">
        <ele>145</ele>
        <time>2020-09-23T18:36:20+02:00</time>
      </trkpt>
      <trkpt lat="47.16499" lon="-0.68721">
        <ele>145</ele>
        <time>2020-09-23T18:36:25+02:00</time>
      </trkpt>
      <trkpt lat="47.16488" lon="-0.6874">
        <ele>146</ele>
        <time>2020-09-23T18:36:30+02:00</time>
      </trkpt>
      <trkpt lat="47.16475" lon="-0.68748">
        <ele>147</ele>
        <time>2020-09-23T18:36:35+02:00</time>
      </trkpt>
      <trkpt lat="47.16453" lon="-0.68767">
        <ele>148</ele>
        <time>2020-09-23T18:36:40+02:00</time>
      </trkpt>
      <trkpt lat="47.16428" lon="-0.68794">
        <ele>149</ele>
        <time>2020-09-23T18:36:45+02:00</time>
      </trkpt>
      <trkpt lat="47.16414" lon="-0.68818">
        <ele>150</ele>
        <time>2020-09-23T18:36:50+02:00</time>
      </trkpt>
      <trkpt lat="47.16382" lon="-0.68893">
        <ele>152</ele>
        <time>2020-09-23T18:36:55+02:00</time>
      </trkpt>
      <trkpt lat="47.16434" lon="-0.68873">
        <ele>148</ele>
        <time>2020-09-23T18:37:00+02:00</time>
      </trkpt>
      <trkpt lat="47.16485" lon="-0.68859">
        <ele>145</ele>
        <time>2020-09-23T18:37:05+02:00</time>
      </trkpt>
      <trkpt lat="47.16518" lon="-0.6885">
        <ele>143</ele>
        <time>2020-09-23T18:37:10+02:00</time>
      </trkpt>
      <trkpt lat="47.1655" lon="-0.68842">
        <ele>142</ele>
        <time>2020-09-23T18:37:15+02:00</time>
      </trkpt>
      <trkpt lat="47.16573" lon="-0.68833">
        <ele>141</ele>
        <time>2020-09-23T18:37:20+02:00</time>
      </trkpt>
      <trkpt lat="47.16608" lon="-0.68809">
        <ele>139</ele>
        <time>2020-09-23T18:37:25+02:00</time>
      </trkpt>
      <trkpt lat="47.16613" lon="-0.68796">
        <ele>139</ele>
        <time>2020-09-23T18:37:30+02:00</time>
      </trkpt>
      <trkpt lat="47.16623" lon="-0.6878">
        <ele>138</ele>
        <time>2020-09-23T18:37:35+02:00</time>
      </trkpt>
      <trkpt lat="47.16653" lon="-0.68764">
        <ele>137</ele>
        <time>2020-09-23T18:37:40+02:00</time>
      </trkpt>
      <trkpt lat="47.16706" lon="-0.68757">
        <ele>135</ele>
        <time>2020-09-23T18:37:45+02:00</time>
      </trkpt>
      <trkpt lat="47.16724" lon="-0.68751">
        <ele>134</ele>
        <time>2020-09-23T18:37:50+02:00</time>
      </trkpt>
      <trkpt lat="47.16739" lon="-0.68737">
        <ele>134</ele>
        <time>2020-09-23T18:37:55+02:00</time>
      </trkpt>
      <trkpt lat="47.16746" lon="-0.68721">
        <ele>134</ele>
        <time>2020-09-23T18:38:00+02:00</time>
      </trkpt>
      <trkpt lat="47.16761" lon="-0.68674">
        <ele>134</ele>
        <time>2020-09-23T18:38:05+02:00</time>
      </trkpt>
      <trkpt lat="47.1678" lon="-0.68656">
        <ele>133</ele>
        <time>2020-09-23T18:38:10+02:00</time>
      </trkpt>
      <trkpt lat="47.16832" lon="-0.68624">
        <ele>132</ele>
        <time>2020-09-23T18:38:15+02:00</time>
      </trkpt>
      <trkpt lat="47.1685" lon="-0.68612">
        <ele>132</ele>
        <time>2020-09-23T18:38:20+02:00</time>
      </trkpt>
      <trkpt lat="47.1696" lon="-0.68557">
        <ele>129</ele>
        <time>2020-09-23T18:38:25+02:00</time>
      </trkpt>
      <trkpt lat="47.17014" lon="-0.68521">
        <ele>128</ele>
        <time>2020-09-23T18:38:30+02:00</time>
      </trkpt>
      <trkpt lat="47.17018" lon="-0.68511">
        <ele>128</ele>
        <time>2020-09-23T18:38:35+02:00</time>
      </trkpt>
      <trkpt lat="47.17072" lon="-0.68573">
        <ele>127</ele>
        <time>2020-09-23T18:38:40+02:00</time>
      </trkpt>
      <trkpt lat="47.17127" lon="-0.68638">
        <ele>126</ele>
        <time>2020-09-23T18:38:45+02:00</time>
      </trkpt>
      <trkpt lat="47.17165" lon="-0.6867">
        <ele>125</ele>
        <time>2020-09-23T18:38:50+02:00</time>
      </trkpt>
      <trkpt lat="47.17197" lon="-0.68696">
        <ele>125</ele>
        <time>2020-09-23T18:38:55+02:00</time>
      </trkpt>
      <trkpt lat="47.17196" lon="-0.68713">
        <ele>126</ele>
        <time>2020-09-23T18:39:00+02:00</time>
      </trkpt>
      <trkpt lat="47.17193" lon="-0.68724">
        <ele>126</ele>
        <time>2020-09-23T18:39:05+02:00</time>
      </trkpt>
      <trkpt lat="47.17182" lon="-0.68746">
        <ele>127</ele>
        <time>2020-09-23T18:39:10+02:00</time>
      </trkpt>
      <trkpt lat="47.17179" lon="-0.68764">
        <ele>127</ele>
        <time>2020-09-23T18:39:15+02:00</time>
      </trkpt>
      <trkpt lat="47.17119" lon="-0.68794">
        <ele>127</ele>
        <time>2020-09-23T18:39:20+02:00</time>
      </trkpt>
      <trkpt lat="47.17116" lon="-0.68894">
        <ele>129</ele>
        <time>2020-09-23T18:39:25+02:00</time>
      </trkpt>
      <trkpt lat="47.17111" lon="-0.69047">
        <ele>131</ele>
        <time>2020-09-23T18:39:30+02:00</time>
      </trkpt>
      <trkpt lat="47.17109" lon="-0.69144">
        <ele>133</ele>
        <time>2020-09-23T18:39:35+02:00</time>
      </trkpt>
      <trkpt lat="47.17052" lon="-0.69156">
        <ele>132</ele>
        <time>2020-09-23T18:39:40+02:00</time>
      </trkpt>
      <trkpt lat="47.17044" lon="-0.69171">
        <ele>133</ele>
        <time>2020-09-23T18:39:45+02:00</time>
      </trkpt>
      <trkpt lat="47.17041" lon="-0.69204">
        <ele>132</ele>
        <time>2020-09-23T18:39:50+02:00</time>
      </trkpt>
      <trkpt lat="47.17036" lon="-0.6926">
        <ele>133</ele>
        <time>2020-09-23T18:39:55+02:00</time>
      </trkpt>
      <trkpt lat="47.17035" lon="-0.69309">
        <ele>134</ele>
        <time>2020-09-23T18:40:00+02:00</time>
      </trkpt>
      <trkpt lat="47.17036" lon="-0.69355">
        <ele>134</ele>
        <time>2020-09-23T18:40:05+02:00</time>
      </trkpt>
      <trkpt lat="47.17041" lon="-0.69387">
        <ele>135</ele>
        <time>2020-09-23T18:40:10+02:00</time>
      </trkpt>
      <trkpt lat="47.17046" lon="-0.69424">
        <ele>135</ele>
        <time>2020-09-23T18:40:15+02:00</time>
      </trkpt>
      <trkpt lat="47.17049" lon="-0.69441">
        <ele>135</ele>
        <time>2020-09-23T18:40:20+02:00</time>
      </trkpt>
      <trkpt lat="47.17056" lon="-0.69479">
        <ele>134</ele>
        <time>2020-09-23T18:40:25+02:00</time>
      </trkpt>
      <trkpt lat="47.17066" lon="-0.69541">
        <ele>133</ele>
        <time>2020-09-23T18:40:30+02:00</time>
      </trkpt>
      <trkpt lat="47.17076" lon="-0.69625">
        <ele>132</ele>
        <time>2020-09-23T18:40:35+02:00</time>
      </trkpt>
      <trkpt lat="47.17203" lon="-0.696">
        <ele>136</ele>
        <time>2020-09-23T18:40:40+02:00</time>
      </trkpt>
      <trkpt lat="47.1741" lon="-0.69549">
        <ele>135</ele>
        <time>2020-09-23T18:40:45+02:00</time>
      </trkpt>
      <trkpt lat="47.17466" lon="-0.69537">
        <ele>133</ele>
        <time>2020-09-23T18:40:50+02:00</time>
      </trkpt>
      <trkpt lat="47.17498" lon="-0.69541">
        <ele>132</ele>
        <time>2020-09-23T18:40:55+02:00</time>
      </trkpt>
      <trkpt lat="47.17553" lon="-0.69542">
        <ele>130</ele>
        <time>2020-09-23T18:41:00+02:00</time>
      </trkpt>
      <trkpt lat="47.17601" lon="-0.69526">
        <ele>129</ele>
        <time>2020-09-23T18:41:05+02:00</time>
      </trkpt>
      <trkpt lat="47.17642" lon="-0.69498">
        <ele>128</ele>
        <time>2020-09-23T18:41:10+02:00</time>
      </trkpt>
      <trkpt lat="47.17699" lon="-0.6945">
        <ele>126</ele>
        <time>2020-09-23T18:41:15+02:00</time>
      </trkpt>
      <trkpt lat="47.17759" lon="-0.69412">
        <ele>124</ele>
        <time>2020-09-23T18:41:20+02:00</time>
      </trkpt>
      <trkpt lat="47.17791" lon="-0.69398">
        <ele>124</ele>
        <time>2020-09-23T18:41:25+02:00</time>
      </trkpt>
      <trkpt lat="47.17825" lon="-0.69408">
        <ele>123</ele>
        <time>2020-09-23T18:41:30+02:00</time>
      </trkpt>
      <trkpt lat="47.17851" lon="-0.69427">
        <ele>123</ele>
        <time>2020-09-23T18:41:35+02:00</time>
      </trkpt>
      <trkpt lat="47.17875" lon="-0.69445">
        <ele>122</ele>
        <time>2020-09-23T18:41:40+02:00</time>
      </trkpt>
      <trkpt lat="47.17882" lon="-0.69412">
        <ele>123</ele>
        <time>2020-09-23T18:41:45+02:00</time>
      </trkpt>
      <trkpt lat="47.17898" lon="-0.69348">
        <ele>124</ele>
        <time>2020-09-23T18:41:50+02:00</time>
      </trkpt>
      <trkpt lat="47.17905" lon="-0.69331">
        <ele>125</ele>
        <time>2020-09-23T18:41:55+02:00</time>
      </trkpt>
      <trkpt lat="47.17912" lon="-0.69318">
        <ele>125</ele>
        <time>2020-09-23T18:42:00+02:00</time>
      </trkpt>
      <trkpt lat="47.17929" lon="-0.69295">
        <ele>125</ele>
        <time>2020-09-23T18:42:05+02:00</time>
      </trkpt>
      <trkpt lat="47.17959" lon="-0.69263">
        <ele>125</ele>
        <time>2020-09-23T18:42:10+02:00</time>
      </trkpt>
      <trkpt lat="47.17992" lon="-0.69233">
        <ele>125</ele>
        <time>2020-09-23T18:42:15+02:00</time>
      </trkpt>
      <trkpt lat="47.18016" lon="-0.69214">
        <ele>126</ele>
        <time>2020-09-23T18:42:20+02:00</time>
      </trkpt>
      <trkpt lat="47.18024" lon="-0.69202">
        <ele>126</ele>
        <time>2020-09-23T18:42:25+02:00</time>
      </trkpt>
      <trkpt lat="47.18058" lon="-0.69142">
        <ele>125</ele>
        <time>2020-09-23T18:42:30+02:00</time>
      </trkpt>
      <trkpt lat="47.18069" lon="-0.69127">
        <ele>125</ele>
        <time>2020-09-23T18:42:35+02:00</time>
      </trkpt>
      <trkpt lat="47.18077" lon="-0.69123">
        <ele>125</ele>
        <time>2020-09-23T18:42:40+02:00</time>
      </trkpt>
      <trkpt lat="47.18065" lon="-0.69063">
        <ele>124</ele>
        <time>2020-09-23T18:42:45+02:00</time>
      </trkpt>
      <trkpt lat="47.18064" lon="-0.69061">
        <ele>124</ele>
        <time>2020-09-23T18:42:50+02:00</time>
      </trkpt>
      <trkpt lat="47.18051" lon="-0.68993">
        <ele>124</ele>
        <time>2020-09-23T18:42:55+02:00</time>
      </trkpt>
      <trkpt lat="47.18048" lon="-0.68962">
        <ele>125</ele>
        <time>2020-09-23T18:43:00+02:00</time>
      </trkpt>
      <trkpt lat="47.18047" lon="-0.68925">
        <ele>125</ele>
        <time>2020-09-23T18:43:05+02:00</time>
      </trkpt>
      <trkpt lat="47.18049" lon="-0.68867">
        <ele>125</ele>
        <time>2020-09-23T18:43:10+02:00</time>
      </trkpt>
      <trkpt lat="47.18055" lon="-0.68854">
        <ele>125</ele>
        <time>2020-09-23T18:43:15+02:00</time>
      </trkpt>
      <trkpt lat="47.18064" lon="-0.6885">
        <ele>125</ele>
        <time>2020-09-23T18:43:20+02:00</time>
      </trkpt>
      <trkpt lat="47.1813" lon="-0.68827">
        <ele>123</ele>
        <time>2020-09-23T18:43:25+02:00</time>
      </trkpt>
      <trkpt lat="47.18141" lon="-0.68825">
        <ele>123</ele>
        <time>2020-09-23T18:43:30+02:00</time>
      </trkpt>
      <trkpt lat="47.18147" lon="-0.68827">
        <ele>123</ele>
        <time>2020-09-23T18:43:35+02:00</time>
      </trkpt>
      <trkpt lat="47.18165" lon="-0.68814">
        <ele>122</ele>
        <time>2020-09-23T18:43:40+02:00</time>
      </trkpt>
      <trkpt lat="47.18188" lon="-0.68797">
        <ele>122</ele>
        <time>2020-09-23T18:43:45+02:00</time>
      </trkpt>
      <trkpt lat="47.18208" lon="-0.68781">
        <ele>123</ele>
        <time>2020-09-23T18:43:50+02:00</time>
      </trkpt>
      <trkpt lat="47.18218" lon="-0.68765">
        <ele>123</ele>
        <time>2020-09-23T18:43:55+02:00</time>
      </trkpt>
      <trkpt lat="47.18235" lon="-0.68741">
        <ele>124</ele>
        <time>2020-09-23T18:44:00+02:00</time>
      </trkpt>
      <trkpt lat="47.18295" lon="-0.68702">
        <ele>122</ele>
        <time>2020-09-23T18:44:05+02:00</time>
      </trkpt>
      <trkpt lat="47.18357" lon="-0.68659">
        <ele>121</ele>
        <time>2020-09-23T18:44:10+02:00</time>
      </trkpt>
      <trkpt lat="47.18388" lon="-0.68624">
        <ele>120</ele>
        <time>2020-09-23T18:44:15+02:00</time>
      </trkpt>
      <trkpt lat="47.18421" lon="-0.68589">
        <ele>120</ele>
        <time>2020-09-23T18:44:20+02:00</time>
      </trkpt>
      <trkpt lat="47.18472" lon="-0.68546">
        <ele>118</ele>
        <time>2020-09-23T18:44:25+02:00</time>
      </trkpt>
      <trkpt lat="47.18511" lon="-0.68519">
        <ele>116</ele>
        <time>2020-09-23T18:44:30+02:00</time>
      </trkpt>
      <trkpt lat="47.18513" lon="-0.68518">
        <ele>116</ele>
        <time>2020-09-23T18:44:35+02:00</time>
      </trkpt>
      <trkpt lat="47.18537" lon="-0.68501">
        <ele>115</ele>
        <time>2020-09-23T18:44:40+02:00</time>
      </trkpt>
      <trkpt lat="47.18592" lon="-0.6844">
        <ele>114</ele>
        <time>2020-09-23T18:44:45+02:00</time>
      </trkpt>
      <trkpt lat="47.18636" lon="-0.68396">
        <ele>114</ele>
        <time>2020-09-23T18:44:50+02:00</time>
      </trkpt>
      <trkpt lat="47.18721" lon="-0.68336">
        <ele>111</ele>
        <time>2020-09-23T18:44:55+02:00</time>
      </trkpt>
      <trkpt lat="47.18763" lon="-0.68252">
        <ele>109</ele>
        <time>2020-09-23T18:45:00+02:00</time>
      </trkpt>
      <trkpt lat="47.18788" lon="-0.68203">
        <ele>108</ele>
        <time>2020-09-23T18:45:05+02:00</time>
      </trkpt>
      <trkpt lat="47.18805" lon="-0.68167">
        <ele>108</ele>
        <time>2020-09-23T18:45:10+02:00</time>
      </trkpt>
      <trkpt lat="47.18814" lon="-0.68149">
        <ele>108</ele>
        <time>2020-09-23T18:45:15+02:00</time>
      </trkpt>
      <trkpt lat="47.18823" lon="-0.68128">
        <ele>108</ele>
        <time>2020-09-23T18:45:20+02:00</time>
      </trkpt>
      <trkpt lat="47.18838" lon="-0.68098">
        <ele>108</ele>
        <time>2020-09-23T18:45:25+02:00</time>
      </trkpt>
      <trkpt lat="47.18838" lon="-0.68058">
        <ele>108</ele>
        <time>2020-09-23T18:45:30+02:00</time>
      </trkpt>
      <trkpt lat="47.18834" lon="-0.68013">
        <ele>107</ele>
        <time>2020-09-23T18:45:35+02:00</time>
      </trkpt>
      <trkpt lat="47.18827" lon="-0.67984">
        <ele>107</ele>
        <time>2020-09-23T18:45:40+02:00</time>
      </trkpt>
      <trkpt lat="47.18815" lon="-0.67944">
        <ele>106</ele>
        <time>2020-09-23T18:45:45+02:00</time>
      </trkpt>
      <trkpt lat="47.18807" lon="-0.6791">
        <ele>106</ele>
        <time>2020-09-23T18:45:50+02:00</time>
      </trkpt>
      <trkpt lat="47.18797" lon="-0.67857">
        <ele>106</ele>
        <time>2020-09-23T18:45:55+02:00</time>
      </trkpt>
      <trkpt lat="47.18777" lon="-0.67722">
        <ele>110</ele>
        <time>2020-09-23T18:46:00+02:00</time>
      </trkpt>
      <trkpt lat="47.18752" lon="-0.67564">
        <ele>112</ele>
        <time>2020-09-23T18:46:05+02:00</time>
      </trkpt>
      <trkpt lat="47.18746" lon="-0.67528">
        <ele>112</ele>
        <time>2020-09-23T18:46:10+02:00</time>
      </trkpt>
      <trkpt lat="47.18734" lon="-0.67484">
        <ele>112</ele>
        <time>2020-09-23T18:46:15+02:00</time>
      </trkpt>
      <trkpt lat="47.18715" lon="-0.674">
        <ele>112</ele>
        <time>2020-09-23T18:46:20+02:00</time>
      </trkpt>
      <trkpt lat="47.18709" lon="-0.67392">
        <ele>112</ele>
        <time>2020-09-23T18:46:25+02:00</time>
      </trkpt>
      <trkpt lat="47.18673" lon="-0.67378">
        <ele>112</ele>
        <time>2020-09-23T18:46:30+02:00</time>
      </trkpt>
      <trkpt lat="47.18644" lon="-0.67367">
        <ele>112</ele>
        <time>2020-09-23T18:46:35+02:00</time>
      </trkpt>
      <trkpt lat="47.18623" lon="-0.67352">
        <ele>111</ele>
        <time>2020-09-23T18:46:40+02:00</time>
      </trkpt>
      <trkpt lat="47.18595" lon="-0.67328">
        <ele>110</ele>
        <time>2020-09-23T18:46:45+02:00</time>
      </trkpt>
      <trkpt lat="47.18482" lon="-0.67268">
        <ele>106</ele>
        <time>2020-09-23T18:46:50+02:00</time>
      </trkpt>
      <trkpt lat="47.18461" lon="-0.6725">
        <ele>105</ele>
        <time>2020-09-23T18:46:55+02:00</time>
      </trkpt>
      <trkpt lat="47.18445" lon="-0.67231">
        <ele>104</ele>
        <time>2020-09-23T18:47:00+02:00</time>
      </trkpt>
      <trkpt lat="47.18437" lon="-0.67206">
        <ele>104</ele>
        <time>2020-09-23T18:47:05+02:00</time>
      </trkpt>
      <trkpt lat="47.18433" lon="-0.67177">
        <ele>103</ele>
        <time>2020-09-23T18:47:10+02:00</time>
      </trkpt>
      <trkpt lat="47.18424" lon="-0.67148">
        <ele>104</ele>
        <time>2020-09-23T18:47:15+02:00</time>
      </trkpt>
      <trkpt lat="47.18409" lon="-0.67124">
        <ele>105</ele>
        <time>2020-09-23T18:47:20+02:00</time>
      </trkpt>
      <trkpt lat="47.184" lon="-0.6711">
        <ele>105</ele>
        <time>2020-09-23T18:47:25+02:00</time>
      </trkpt>
      <trkpt lat="47.18391" lon="-0.67102">
        <ele>106</ele>
        <time>2020-09-23T18:47:30+02:00</time>
      </trkpt>
      <trkpt lat="47.1838" lon="-0.67098">
        <ele>106</ele>
        <time>2020-09-23T18:47:35+02:00</time>
      </trkpt>
      <trkpt lat="47.18363" lon="-0.67095">
        <ele>106</ele>
        <time>2020-09-23T18:47:40+02:00</time>
      </trkpt>
      <trkpt lat="47.18362" lon="-0.67082">
        <ele>107</ele>
        <time>2020-09-23T18:47:45+02:00</time>
      </trkpt>
      <trkpt lat="47.18355" lon="-0.67063">
        <ele>106</ele>
        <time>2020-09-23T18:47:50+02:00</time>
      </trkpt>
      <trkpt lat="47.1834" lon="-0.67057">
        <ele>107</ele>
        <time>2020-09-23T18:47:55+02:00</time>
      </trkpt>
      <trkpt lat="47.18331" lon="-0.67055">
        <ele>107</ele>
        <time>2020-09-23T18:48:00+02:00</time>
      </trkpt>
      <trkpt lat="47.18324" lon="-0.67059">
        <ele>107</ele>
        <time>2020-09-23T18:48:05+02:00</time>
      </trkpt>
      <trkpt lat="47.18321" lon="-0.67057">
        <ele>107</ele>
        <time>2020-09-23T18:48:10+02:00</time>
      </trkpt>
      <trkpt lat="47.18311" lon="-0.67061">
        <ele>108</ele>
        <time>2020-09-23T18:48:15+02:00</time>
      </trkpt>
      <trkpt lat="47.18297" lon="-0.67064">
        <ele>108</ele>
        <time>2020-09-23T18:48:20+02:00</time>
      </trkpt>
      <trkpt lat="47.18277" lon="-0.67067">
        <ele>109</ele>
        <time>2020-09-23T18:48:25+02:00</time>
      </trkpt>
      <trkpt lat="47.1826" lon="-0.67067">
        <ele>110</ele>
        <time>2020-09-23T18:48:30+02:00</time>
      </trkpt>
      <trkpt lat="47.18227" lon="-0.67062">
        <ele>111</ele>
        <time>2020-09-23T18:48:35+02:00</time>
      </trkpt>
      <trkpt lat="47.18206" lon="-0.67057">
        <ele>112</ele>
        <time>2020-09-23T18:48:40+02:00</time>
      </trkpt>
      <trkpt lat="47.18182" lon="-0.67057">
        <ele>113</ele>
        <time>2020-09-23T18:48:45+02:00</time>
      </trkpt>
      <trkpt lat="47.18169" lon="-0.67057">
        <ele>113</ele>
        <time>2020-09-23T18:48:50+02:00</time>
      </trkpt>
      <trkpt lat="47.18086" lon="-0.668">
        <ele>115</ele>
        <time>2020-09-23T18:48:55+02:00</time>
      </trkpt>
      <trkpt lat="47.1807" lon="-0.66804">
        <ele>115</ele>
        <time>2020-09-23T18:49:00+02:00</time>
      </trkpt>
      <trkpt lat="47.18054" lon="-0.66802">
        <ele>115</ele>
        <time>2020-09-23T18:49:05+02:00</time>
      </trkpt>
      <trkpt lat="47.18035" lon="-0.66783">
        <ele>116</ele>
        <time>2020-09-23T18:49:10+02:00</time>
      </trkpt>
      <trkpt lat="47.17997" lon="-0.66699">
        <ele>116</ele>
        <time>2020-09-23T18:49:15+02:00</time>
      </trkpt>
      <trkpt lat="47.17979" lon="-0.66672">
        <ele>117</ele>
        <time>2020-09-23T18:49:20+02:00</time>
      </trkpt>
      <trkpt lat="47.17963" lon="-0.66663">
        <ele>117</ele>
        <time>2020-09-23T18:49:25+02:00</time>
      </trkpt>
      <trkpt lat="47.17951" lon="-0.66665">
        <ele>117</ele>
        <time>2020-09-23T18:49:30+02:00</time>
      </trkpt>
      <trkpt lat="47.17886" lon="-0.66713">
        <ele>119</ele>
        <time>2020-09-23T18:49:35+02:00</time>
      </trkpt>
      <trkpt lat="47.17866" lon="-0.66732">
        <ele>120</ele>
        <time>2020-09-23T18:49:40+02:00</time>
      </trkpt>
      <trkpt lat="47.17677" lon="-0.66819">
        <ele>127</ele>
        <time>2020-09-23T18:49:45+02:00</time>
      </trkpt>
      <trkpt lat="47.17662" lon="-0.66808">
        <ele>127</ele>
        <time>2020-09-23T18:49:50+02:00</time>
      </trkpt>
      <trkpt lat="47.17626" lon="-0.66839">
        <ele>127</ele>
        <time>2020-09-23T18:49:55+02:00</time>
      </trkpt>
      <trkpt lat="47.17606" lon="-0.66862">
        <ele>127</ele>
        <time>2020-09-23T18:50:00+02:00</time>
      </trkpt>
      <trkpt lat="47.17603" lon="-0.66876">
        <ele>126</ele>
        <time>2020-09-23T18:50:05+02:00</time>
      </trkpt>
      <trkpt lat="47.17594" lon="-0.6688">
        <ele>126</ele>
        <time>2020-09-23T18:50:10+02:00</time>
      </trkpt>
      <trkpt lat="47.17587" lon="-0.66873">
        <ele>127</ele>
        <time>2020-09-23T18:50:15+02:00</time>
      </trkpt>
      <trkpt lat="47.17576" lon="-0.66874">
        <ele>126</ele>
        <time>2020-09-23T18:50:20+02:00</time>
      </trkpt>
      <trkpt lat="47.17563" lon="-0.66883">
        <ele>126</ele>
        <time>2020-09-23T18:50:25+02:00</time>
      </trkpt>
      <trkpt lat="47.17438" lon="-0.66864">
        <ele>123</ele>
        <time>2020-09-23T18:50:30+02:00</time>
      </trkpt>
      <trkpt lat="47.17408" lon="-0.66861">
        <ele>122</ele>
        <time>2020-09-23T18:50:35+02:00</time>
      </trkpt>
      <trkpt lat="47.17385" lon="-0.66869">
        <ele>121</ele>
        <time>2020-09-23T18:50:40+02:00</time>
      </trkpt>
      <trkpt lat="47.17358" lon="-0.66886">
        <ele>120</ele>
        <time>2020-09-23T18:50:45+02:00</time>
      </trkpt>
      <trkpt lat="47.17344" lon="-0.66907">
        <ele>119</ele>
        <time>2020-09-23T18:50:50+02:00</time>
      </trkpt>
      <trkpt lat="47.1732" lon="-0.6695">
        <ele>120</ele>
        <time>2020-09-23T18:50:55+02:00</time>
      </trkpt>
      <trkpt lat="47.17308" lon="-0.66968">
        <ele>120</ele>
        <time>2020-09-23T18:51:00+02:00</time>
      </trkpt>
      <trkpt lat="47.17303" lon="-0.6698">
        <ele>120</ele>
        <time>2020-09-23T18:51:05+02:00</time>
      </trkpt>
      <trkpt lat="47.17307" lon="-0.67007">
        <ele>121</ele>
        <time>2020-09-23T18:51:10+02:00</time>
      </trkpt>
      <trkpt lat="47.1732" lon="-0.67118">
        <ele>119</ele>
        <time>2020-09-23T18:51:15+02:00</time>
      </trkpt>
      <trkpt lat="47.17326" lon="-0.6717">
        <ele>118</ele>
        <time>2020-09-23T18:51:20+02:00</time>
      </trkpt>
      <trkpt lat="47.17335" lon="-0.67229">
        <ele>116</ele>
        <time>2020-09-23T18:51:25+02:00</time>
      </trkpt>
      <trkpt lat="47.17339" lon="-0.67266">
        <ele>116</ele>
        <time>2020-09-23T18:51:30+02:00</time>
      </trkpt>
      <trkpt lat="47.17344" lon="-0.67284">
        <ele>116</ele>
        <time>2020-09-23T18:51:35+02:00</time>
      </trkpt>
      <trkpt lat="47.17383" lon="-0.67345">
        <ele>116</ele>
        <time>2020-09-23T18:51:40+02:00</time>
      </trkpt>
      <trkpt lat="47.17393" lon="-0.67371">
        <ele>117</ele>
        <time>2020-09-23T18:51:45+02:00</time>
      </trkpt>
      <trkpt lat="47.17429" lon="-0.67487">
        <ele>119</ele>
        <time>2020-09-23T18:51:50+02:00</time>
      </trkpt>
      <trkpt lat="47.17478" lon="-0.67664">
        <ele>117</ele>
        <time>2020-09-23T18:51:55+02:00</time>
      </trkpt>
      <trkpt lat="47.17479" lon="-0.67702">
        <ele>118</ele>
        <time>2020-09-23T18:52:00+02:00</time>
      </trkpt>
      <trkpt lat="47.17475" lon="-0.67797">
        <ele>120</ele>
        <time>2020-09-23T18:52:05+02:00</time>
      </trkpt>
      <trkpt lat="47.17469" lon="-0.67806">
        <ele>121</ele>
        <time>2020-09-23T18:52:10+02:00</time>
      </trkpt>
      <trkpt lat="47.17425" lon="-0.67834">
        <ele>120</ele>
        <time>2020-09-23T18:52:15+02:00</time>
      </trkpt>
      <trkpt lat="47.17404" lon="-0.67849">
        <ele>120</ele>
        <time>2020-09-23T18:52:20+02:00</time>
      </trkpt>
      <trkpt lat="47.17385" lon="-0.67857">
        <ele>121</ele>
        <time>2020-09-23T18:52:25+02:00</time>
      </trkpt>
      <trkpt lat="47.17337" lon="-0.67863">
        <ele>121</ele>
        <time>2020-09-23T18:52:30+02:00</time>
      </trkpt>
      <trkpt lat="47.1726" lon="-0.67878">
        <ele>121</ele>
        <time>2020-09-23T18:52:35+02:00</time>
      </trkpt>
      <trkpt lat="47.17236" lon="-0.6788">
        <ele>121</ele>
        <time>2020-09-23T18:52:40+02:00</time>
      </trkpt>
      <trkpt lat="47.17216" lon="-0.67873">
        <ele>121</ele>
        <time>2020-09-23T18:52:45+02:00</time>
      </trkpt>
      <trkpt lat="47.17196" lon="-0.6785">
        <ele>122</ele>
        <time>2020-09-23T18:52:50+02:00</time>
      </trkpt>
      <trkpt lat="47.17188" lon="-0.6783">
        <ele>122</ele>
        <time>2020-09-23T18:52:55+02:00</time>
      </trkpt>
      <trkpt lat="47.17185" lon="-0.67821">
        <ele>123</ele>
        <time>2020-09-23T18:53:00+02:00</time>
      </trkpt>
      <trkpt lat="47.17173" lon="-0.67797">
        <ele>123</ele>
        <time>2020-09-23T18:53:05+02:00</time>
      </trkpt>
      <trkpt lat="47.17152" lon="-0.67784">
        <ele>124</ele>
        <time>2020-09-23T18:53:10+02:00</time>
      </trkpt>
      <trkpt lat="47.17123" lon="-0.67782">
        <ele>124</ele>
        <time>2020-09-23T18:53:15+02:00</time>
      </trkpt>
      <trkpt lat="47.17066" lon="-0.67782">
        <ele>126</ele>
        <time>2020-09-23T18:53:20+02:00</time>
      </trkpt>
      <trkpt lat="47.17047" lon="-0.67784">
        <ele>126</ele>
        <time>2020-09-23T18:53:25+02:00</time>
      </trkpt>
      <trkpt lat="47.16987" lon="-0.67804">
        <ele>128</ele>
        <time>2020-09-23T18:53:30+02:00</time>
      </trkpt>
      <trkpt lat="47.16945" lon="-0.67818">
        <ele>129</ele>
        <time>2020-09-23T18:53:35+02:00</time>
      </trkpt>
      <trkpt lat="47.16933" lon="-0.67819">
        <ele>129</ele>
        <time>2020-09-23T18:53:40+02:00</time>
      </trkpt>
      <trkpt lat="47.16889" lon="-0.67829">
        <ele>130</ele>
        <time>2020-09-23T18:53:45+02:00</time>
      </trkpt>
      <trkpt lat="47.16855" lon="-0.6783">
        <ele>130</ele>
        <time>2020-09-23T18:53:50+02:00</time>
      </trkpt>
      <trkpt lat="47.16817" lon="-0.67826">
        <ele>130</ele>
        <time>2020-09-23T18:53:55+02:00</time>
      </trkpt>
      <trkpt lat="47.16797" lon="-0.67824">
        <ele>130</ele>
        <time>2020-09-23T18:54:00+02:00</time>
      </trkpt>
      <trkpt lat="47.16783" lon="-0.67821">
        <ele>129</ele>
        <time>2020-09-23T18:54:05+02:00</time>
      </trkpt>
      <trkpt lat="47.16754" lon="-0.67806">
        <ele>128</ele>
        <time>2020-09-23T18:54:10+02:00</time>
      </trkpt>
      <trkpt lat="47.1673" lon="-0.67799">
        <ele>128</ele>
        <time>2020-09-23T18:54:15+02:00</time>
      </trkpt>
      <trkpt lat="47.16716" lon="-0.67801">
        <ele>129</ele>
        <time>2020-09-23T18:54:20+02:00</time>
      </trkpt>
      <trkpt lat="47.16696" lon="-0.67812">
        <ele>129</ele>
        <time>2020-09-23T18:54:25+02:00</time>
      </trkpt>
      <trkpt lat="47.16659" lon="-0.6784">
        <ele>130</ele>
        <time>2020-09-23T18:54:30+02:00</time>
      </trkpt>
      <trkpt lat="47.16606" lon="-0.67863">
        <ele>132</ele>
        <time>2020-09-23T18:54:35+02:00</time>
      </trkpt>
      <trkpt lat="47.16585" lon="-0.67869">
        <ele>132</ele>
        <time>2020-09-23T18:54:40+02:00</time>
      </trkpt>
      <trkpt lat="47.16569" lon="-0.67878">
        <ele>133</ele>
        <time>2020-09-23T18:54:45+02:00</time>
      </trkpt>
      <trkpt lat="47.16542" lon="-0.67899">
        <ele>133</ele>
        <time>2020-09-23T18:54:50+02:00</time>
      </trkpt>
      <trkpt lat="47.16488" lon="-0.67956">
        <ele>133</ele>
        <time>2020-09-23T18:54:55+02:00</time>
      </trkpt>
      <trkpt lat="47.16459" lon="-0.67995">
        <ele>135</ele>
        <time>2020-09-23T18:55:00+02:00</time>
      </trkpt>
      <trkpt lat="47.16422" lon="-0.68028">
        <ele>137</ele>
        <time>2020-09-23T18:55:05+02:00</time>
      </trkpt>
      <trkpt lat="47.16374" lon="-0.67966">
        <ele>140</ele>
        <time>2020-09-23T18:55:10+02:00</time>
      </trkpt>
      <trkpt lat="47.16342" lon="-0.6794">
        <ele>143</ele>
        <time>2020-09-23T18:55:15+02:00</time>
      </trkpt>
      <trkpt lat="47.16337" lon="-0.67957">
        <ele>144</ele>
        <time>2020-09-23T18:55:20+02:00</time>
      </trkpt>
    </trkseg>
  </trk>
</gpx>